createdAt,value
2024-03-28T00:03:28.608Z,63.44
2024-03-28T00:06:16.730Z,63.51
2024-03-28T00:09:04.672Z,63.70
2024-03-28T00:11:55.348Z,63.61
2024-03-28T00:14:43.518Z,63.84
2024-03-28T00:17:33.483Z,63.88
2024-03-28T00:20:21.277Z,64.11
2024-03-28T00:23:09.143Z,63.96
2024-03-28T00:25:59.747Z,64.14
2024-03-28T00:28:47.153Z,64.11
2024-03-28T00:31:35.452Z,63.93
2024-03-28T00:34:23.249Z,64.00
2024-03-28T00:37:10.915Z,64.20
2024-03-28T00:39:59.376Z,64.16
2024-03-28T00:42:46.905Z,64.29
2024-03-28T00:45:34.827Z,64.20
2024-03-28T00:48:22.871Z,64.19
2024-03-28T00:51:10.597Z,64.20
2024-03-28T00:53:58.625Z,64.18
2024-03-28T00:56:46.783Z,64.22
2024-03-28T00:59:34.548Z,64.32
2024-03-28T01:02:22.496Z,64.37
2024-03-28T01:05:10.218Z,64.49
2024-03-28T01:07:58.278Z,64.35
2024-03-28T01:10:46.098Z,64.42
2024-03-28T01:13:33.842Z,64.48
2024-03-28T01:16:21.712Z,64.50
2024-03-28T01:19:09.506Z,64.58
2024-03-28T01:21:57.535Z,64.42
2024-03-28T01:24:45.389Z,64.10
2024-03-28T01:27:35.727Z,64.05
2024-03-28T01:30:23.649Z,63.93
2024-03-28T01:33:11.102Z,64.12
2024-03-28T01:36:00.277Z,64.00
2024-03-28T01:38:48.539Z,63.94
2024-03-28T01:41:36.712Z,63.82
2024-03-28T01:44:25.241Z,63.69
2024-03-28T01:47:35.004Z,63.56
2024-03-28T01:50:23.357Z,63.57
2024-03-28T01:53:11.624Z,63.40
2024-03-28T01:55:59.624Z,63.64
2024-03-28T01:58:47.406Z,63.41
2024-03-28T02:01:39.837Z,63.24
2024-03-28T02:04:27.588Z,63.13
2024-03-28T02:07:15.359Z,63.11
2024-03-28T02:10:03.969Z,63.22
2024-03-28T02:12:51.573Z,63.12
2024-03-28T02:15:39.604Z,63.20
2024-03-28T02:18:27.738Z,63.14
2024-03-28T02:21:15.961Z,63.24
2024-03-28T02:24:03.773Z,63.24
2024-03-28T02:26:51.878Z,63.59
2024-03-28T02:29:39.507Z,63.58
2024-03-28T02:32:28.005Z,63.73
2024-03-28T02:35:16.031Z,63.86
2024-03-28T02:38:03.813Z,63.92
2024-03-28T02:40:52.493Z,64.18
2024-03-28T02:43:40.336Z,64.25
2024-03-28T02:46:28.275Z,64.44
2024-03-28T02:49:16.027Z,64.60
2024-03-28T02:52:04.153Z,64.77
2024-03-28T02:54:51.927Z,64.90
2024-03-28T02:57:40.033Z,64.92
2024-03-28T03:00:27.860Z,64.95
2024-03-28T03:03:15.504Z,64.89
2024-03-28T03:06:03.766Z,65.18
2024-03-28T03:08:51.927Z,65.08
2024-03-28T03:11:40.456Z,65.20
2024-03-28T03:14:29.781Z,65.31
2024-03-28T03:17:17.555Z,65.30
2024-03-28T03:20:09.579Z,65.37
2024-03-28T03:23:06.454Z,65.33
2024-03-28T03:26:01.137Z,65.56
2024-03-28T03:29:07.616Z,65.50
2024-03-28T03:32:14.137Z,65.69
2024-03-28T03:35:01.986Z,65.74
2024-03-28T03:37:50.177Z,65.79
2024-03-28T03:40:38.377Z,65.80
2024-03-28T03:43:26.254Z,65.74
2024-03-28T03:46:14.044Z,65.83
2024-03-28T03:49:01.748Z,65.69
2024-03-28T03:51:50.202Z,65.74
2024-03-28T03:54:44.487Z,65.85
2024-03-28T03:57:32.327Z,65.67
2024-03-28T04:00:19.840Z,65.70
2024-03-28T04:03:07.878Z,65.80
2024-03-28T04:05:55.635Z,65.75
2024-03-28T04:08:43.670Z,65.56
2024-03-28T04:11:32.307Z,65.87
2024-03-28T04:14:20.190Z,65.83
2024-03-28T04:17:08.164Z,65.90
2024-03-28T04:19:55.958Z,66.03
2024-03-28T04:22:43.698Z,65.90
2024-03-28T04:25:32.639Z,65.68
2024-03-28T04:28:20.295Z,65.61
2024-03-28T04:31:08.049Z,65.70
2024-03-28T04:33:56.132Z,65.42
2024-03-28T04:36:44.763Z,65.47
2024-03-28T04:39:32.623Z,65.62
2024-03-28T04:42:20.269Z,65.40
2024-03-28T04:45:10.050Z,65.46
2024-03-28T04:47:58.490Z,65.25
2024-03-28T04:50:46.868Z,65.25
2024-03-28T04:53:35.396Z,65.30
2024-03-28T04:56:23.260Z,65.09
2024-03-28T04:59:10.969Z,65.06
2024-03-28T05:01:58.613Z,65.16
2024-03-28T05:04:46.516Z,65.28
2024-03-28T05:07:34.273Z,65.40
2024-03-28T05:10:22.223Z,65.28
2024-03-28T05:13:10.082Z,65.23
2024-03-28T05:15:57.940Z,64.98
2024-03-28T05:18:46.135Z,65.45
2024-03-28T05:21:33.769Z,65.51
2024-03-28T05:24:21.626Z,65.67
2024-03-28T05:27:09.342Z,65.43
2024-03-28T05:29:57.023Z,65.27
2024-03-28T05:32:44.809Z,65.24
2024-03-28T05:35:32.971Z,65.32
2024-03-28T05:38:20.537Z,65.38
2024-03-28T05:41:08.247Z,64.96
2024-03-28T05:43:56.168Z,64.91
2024-03-28T05:46:43.893Z,64.79
2024-03-28T05:49:32.036Z,64.38
2024-03-28T05:52:19.903Z,64.45
2024-03-28T05:55:08.772Z,64.78
2024-03-28T05:57:56.296Z,65.12
2024-03-28T06:00:44.133Z,65.47
2024-03-28T06:03:32.168Z,65.77
2024-03-28T06:06:20.215Z,65.83
2024-03-28T06:09:10.075Z,65.62
2024-03-28T06:11:58.223Z,65.77
2024-03-28T06:14:45.984Z,65.69
2024-03-28T06:17:33.877Z,66.68
2024-03-28T06:20:21.763Z,67.36
2024-03-28T06:23:09.494Z,68.24
2024-03-28T06:26:02.834Z,69.00
2024-03-28T06:28:50.968Z,69.39
2024-03-28T06:31:41.406Z,69.48
2024-03-28T06:34:28.925Z,69.35
2024-03-28T06:37:20.204Z,69.17
2024-03-28T06:40:09.225Z,68.92
2024-03-28T06:42:57.224Z,69.01
2024-03-28T06:45:45.267Z,68.97
2024-03-28T06:48:32.917Z,69.07
2024-03-28T06:51:20.786Z,68.72
2024-03-28T06:54:08.971Z,68.90
2024-03-28T06:56:56.735Z,68.67
2024-03-28T06:59:44.673Z,69.06
2024-03-28T07:02:32.327Z,69.15
2024-03-28T07:05:20.230Z,69.03
2024-03-28T07:08:08.168Z,69.03
2024-03-28T07:10:56.443Z,68.89
2024-03-28T07:13:44.988Z,69.19
2024-03-28T07:16:33.872Z,69.23
2024-03-28T07:19:21.597Z,69.58
2024-03-28T07:22:09.708Z,69.43
2024-03-28T07:24:58.066Z,69.33
2024-03-28T07:27:46.099Z,69.30
2024-03-28T07:30:33.818Z,69.81
2024-03-28T07:33:21.911Z,69.85
2024-03-28T07:36:10.263Z,69.52
2024-03-28T07:38:58.267Z,69.64
2024-03-28T07:41:46.005Z,69.95
2024-03-28T07:44:33.591Z,69.91
2024-03-28T07:47:21.365Z,69.79
2024-03-28T07:50:10.030Z,69.40
2024-03-28T07:52:57.992Z,69.56
2024-03-28T07:55:45.739Z,68.46
2024-03-28T07:58:33.238Z,67.60
2024-03-28T08:01:21.021Z,67.28
2024-03-28T08:04:09.029Z,67.11
2024-03-28T08:06:59.494Z,65.93
2024-03-28T08:09:49.391Z,64.23
2024-03-28T08:12:40.758Z,64.24
2024-03-28T08:15:28.561Z,65.13
2024-03-28T08:18:18.050Z,65.66
2024-03-28T08:21:06.118Z,65.49
2024-03-28T08:23:54.106Z,64.86
2024-03-28T08:26:42.780Z,63.99
2024-03-28T08:29:31.117Z,62.90
2024-03-28T08:32:18.951Z,62.91
2024-03-28T08:35:07.740Z,62.17
2024-03-28T08:37:56.068Z,62.22
2024-03-28T08:40:44.100Z,60.75
2024-03-28T08:43:32.148Z,60.17
2024-03-28T08:46:20.051Z,60.43
2024-03-28T08:49:10.827Z,59.02
2024-03-28T08:51:59.851Z,58.68
2024-03-28T08:54:47.587Z,58.02
2024-03-28T08:57:35.927Z,58.23
2024-03-28T09:00:26.579Z,57.25
2024-03-28T09:03:14.717Z,56.46
2024-03-28T09:06:04.725Z,56.74
2024-03-28T09:08:52.547Z,58.37
2024-03-28T09:11:40.546Z,58.94
2024-03-28T09:14:28.313Z,59.80
2024-03-28T09:17:16.349Z,60.05
2024-03-28T09:20:08.359Z,61.09
2024-03-28T09:22:56.529Z,60.82
2024-03-28T09:25:44.636Z,60.81
2024-03-28T09:28:32.637Z,60.90
2024-03-28T09:31:21.244Z,60.60
2024-03-28T09:34:08.554Z,60.46
2024-03-28T09:36:56.199Z,60.49
2024-03-28T09:39:49.311Z,61.62
2024-03-28T09:42:38.460Z,63.22
2024-03-28T09:45:28.612Z,63.20
2024-03-28T09:48:17.073Z,62.52
2024-03-28T09:51:07.425Z,62.08
2024-03-28T09:53:59.937Z,61.19
2024-03-28T09:56:48.704Z,59.68
2024-03-28T09:59:36.610Z,58.88
2024-03-28T10:02:54.780Z,57.42
2024-03-28T10:05:42.231Z,59.33
2024-03-28T10:08:31.698Z,60.69
2024-03-28T10:11:19.498Z,61.31
2024-03-28T10:14:28.124Z,61.64
2024-03-28T10:17:18.037Z,61.92
2024-03-28T10:20:08.718Z,61.25
2024-03-28T10:22:57.477Z,61.56
2024-03-28T10:25:45.617Z,60.95
2024-03-28T10:28:37.012Z,61.48
2024-03-28T10:31:26.923Z,62.41
2024-03-28T10:34:18.970Z,63.22
2024-03-28T10:37:07.227Z,63.69
2024-03-28T10:39:55.176Z,63.03
2024-03-28T10:42:46.473Z,62.63
2024-03-28T10:45:39.886Z,62.72
2024-03-28T10:48:30.873Z,62.30
2024-03-28T10:51:41.321Z,61.34
2024-03-28T10:54:41.652Z,58.73
2024-03-28T10:57:30.195Z,57.78
2024-03-28T11:00:18.570Z,57.17
2024-03-28T11:03:09.962Z,57.54
2024-03-28T11:06:02.105Z,58.07
2024-03-28T11:08:50.479Z,58.02
2024-03-28T11:11:38.826Z,59.41
2024-03-28T11:14:27.682Z,59.28
2024-03-28T11:17:15.835Z,57.35
2024-03-28T11:20:09.775Z,56.99
2024-03-28T11:23:05.302Z,55.05
2024-03-28T11:26:07.576Z,55.54
2024-03-28T11:29:02.587Z,56.51
2024-03-28T11:31:58.835Z,58.28
2024-03-28T11:34:46.715Z,59.04
2024-03-28T11:37:34.288Z,59.57
2024-03-28T11:40:21.989Z,59.67
2024-03-28T11:43:14.229Z,59.11
2024-03-28T11:46:04.688Z,58.70
2024-03-28T11:48:56.927Z,58.59
2024-03-28T11:51:45.691Z,58.76
2024-03-28T11:54:33.537Z,59.11
2024-03-28T11:57:21.265Z,58.91
2024-03-28T12:00:09.886Z,58.21
2024-03-28T12:02:58.750Z,56.23
2024-03-28T12:05:50.383Z,54.48
2024-03-28T12:08:42.795Z,52.31
2024-03-28T12:11:31.096Z,52.02
2024-03-28T12:14:22.493Z,52.29
2024-03-28T12:17:09.860Z,50.92
2024-03-28T12:20:09.800Z,51.08
2024-03-28T12:23:04.522Z,50.97
2024-03-28T12:25:52.726Z,49.48
2024-03-28T12:28:47.793Z,49.03
2024-03-28T12:31:35.590Z,48.50
2024-03-28T12:34:23.459Z,48.29
2024-03-28T12:37:11.037Z,48.49
2024-03-28T12:40:10.385Z,47.20
2024-03-28T12:42:58.438Z,48.15
2024-03-28T12:45:46.362Z,49.40
2024-03-28T12:48:33.854Z,48.57
2024-03-28T12:51:21.580Z,48.76
2024-03-28T12:54:09.183Z,47.70
2024-03-28T12:56:56.910Z,47.85
2024-03-28T12:59:44.718Z,46.28
2024-03-28T13:02:32.842Z,46.26
2024-03-28T13:05:20.933Z,45.46
2024-03-28T13:08:08.873Z,46.21
2024-03-28T13:10:56.399Z,44.60
2024-03-28T13:13:44.449Z,45.41
2024-03-28T13:16:32.594Z,45.90
2024-03-28T13:19:20.261Z,46.20
2024-03-28T13:22:08.308Z,46.30
2024-03-28T13:24:56.440Z,46.77
2024-03-28T13:27:45.268Z,46.22
2024-03-28T13:30:33.549Z,46.12
2024-03-28T13:33:21.663Z,45.50
2024-03-28T13:36:10.254Z,44.17
2024-03-28T13:38:58.715Z,44.49
2024-03-28T13:41:46.220Z,44.19
2024-03-28T13:44:34.332Z,42.67
2024-03-28T13:47:22.482Z,40.17
2024-03-28T13:50:11.352Z,40.76
2024-03-28T13:52:59.106Z,42.12
2024-03-28T13:55:48.091Z,41.44
2024-03-28T13:58:35.723Z,41.96
2024-03-28T14:01:23.438Z,40.47
2024-03-28T14:04:11.774Z,41.64
2024-03-28T14:06:59.831Z,39.46
2024-03-28T14:09:49.896Z,39.86
2024-03-28T14:12:39.818Z,40.23
2024-03-28T14:15:27.615Z,39.45
2024-03-28T14:18:15.453Z,39.20
2024-03-28T14:21:04.724Z,39.59
2024-03-28T14:23:53.471Z,39.89
2024-03-28T14:26:41.135Z,38.98
2024-03-28T14:29:28.619Z,38.54
2024-03-28T14:32:16.410Z,38.42
2024-03-28T14:35:05.790Z,38.34
2024-03-28T14:37:53.193Z,37.77
2024-03-28T14:40:42.712Z,37.83
2024-03-28T14:43:30.825Z,37.41
2024-03-28T14:46:18.760Z,37.69
2024-03-28T14:49:05.998Z,37.82
2024-03-28T14:51:54.992Z,36.64
2024-03-28T14:54:48.397Z,37.34
2024-03-28T14:57:36.128Z,37.47
2024-03-28T15:00:26.128Z,36.96
2024-03-28T15:03:15.388Z,36.94
2024-03-28T15:06:04.054Z,37.12
2024-03-28T15:08:52.090Z,37.13
2024-03-28T15:11:40.229Z,37.08
2024-03-28T15:14:28.391Z,37.63
2024-03-28T15:17:16.213Z,37.02
2024-03-28T15:20:06.442Z,37.58
2024-03-28T15:22:53.969Z,37.83
2024-03-28T15:25:44.466Z,38.64
2024-03-28T15:28:33.007Z,38.59
2024-03-28T15:31:23.287Z,38.66
2024-03-28T15:34:11.328Z,39.17
2024-03-28T15:36:59.372Z,39.48
2024-03-28T15:39:47.127Z,39.40
2024-03-28T15:42:35.676Z,39.90
2024-03-28T15:45:23.997Z,40.35
2024-03-28T15:48:12.180Z,39.82
2024-03-28T15:51:00.202Z,40.26
2024-03-28T15:53:48.032Z,40.62
2024-03-28T15:56:35.717Z,40.72
2024-03-28T15:59:23.325Z,41.31
2024-03-28T16:02:11.579Z,41.75
2024-03-28T16:04:59.801Z,41.78
2024-03-28T16:07:47.637Z,42.07
2024-03-28T16:10:35.898Z,42.44
2024-03-28T16:13:23.732Z,42.50
2024-03-28T16:16:11.502Z,41.58
2024-03-28T16:18:59.501Z,41.96
2024-03-28T16:21:47.088Z,42.18
2024-03-28T16:24:34.856Z,42.29
2024-03-28T16:27:23.426Z,42.62
2024-03-28T16:30:13.301Z,42.73
2024-03-28T16:33:01.011Z,42.74
2024-03-28T16:35:56.240Z,42.88
2024-03-28T16:38:44.780Z,43.33
2024-03-28T16:41:34.311Z,43.69
2024-03-28T16:44:21.837Z,44.22
2024-03-28T16:47:10.008Z,44.38
2024-03-28T16:49:58.138Z,44.71
2024-03-28T16:52:46.518Z,45.46
2024-03-28T16:55:34.786Z,45.57
2024-03-28T16:58:23.416Z,45.66
2024-03-28T17:01:11.200Z,46.38
2024-03-28T17:04:01.123Z,46.51
2024-03-28T17:06:48.674Z,46.80
2024-03-28T17:09:36.533Z,47.21
2024-03-28T17:12:24.276Z,47.31
2024-03-28T17:15:12.147Z,47.56
2024-03-28T17:18:00.105Z,47.81
2024-03-28T17:20:47.579Z,48.13
2024-03-28T17:23:36.363Z,48.25
2024-03-28T17:26:24.143Z,48.70
2024-03-28T17:29:12.043Z,48.97
2024-03-28T17:31:59.739Z,49.38
2024-03-28T17:34:49.864Z,49.34
2024-03-28T17:37:37.564Z,49.57
2024-03-28T17:40:25.576Z,49.69
2024-03-28T17:43:13.781Z,49.56
2024-03-28T17:46:03.639Z,49.47
2024-03-28T17:48:52.019Z,49.64
2024-03-28T17:51:40.060Z,49.66
2024-03-28T17:54:27.796Z,49.61
2024-03-28T17:57:17.163Z,49.70
2024-03-28T18:00:06.879Z,49.98
2024-03-28T18:02:54.619Z,50.30
2024-03-28T18:05:43.439Z,49.91
2024-03-28T18:08:31.487Z,49.77
2024-03-28T18:11:20.037Z,49.87
2024-03-28T18:14:09.665Z,50.06
2024-03-28T18:16:57.594Z,50.51
2024-03-28T18:19:45.725Z,50.51
2024-03-28T18:22:33.921Z,50.71
2024-03-28T18:25:21.397Z,50.54
2024-03-28T18:28:09.289Z,50.58
2024-03-28T18:30:57.157Z,50.45
2024-03-28T18:33:46.217Z,50.48
2024-03-28T18:36:34.978Z,50.33
2024-03-28T18:39:22.479Z,50.48
2024-03-28T18:42:10.158Z,50.69
2024-03-28T18:44:59.598Z,50.76
2024-03-28T18:47:47.527Z,50.73
2024-03-28T18:50:40.832Z,50.86
2024-03-28T18:53:30.370Z,50.95
2024-03-28T18:56:20.567Z,50.93
2024-03-28T18:59:12.192Z,51.08
2024-03-28T19:02:00.236Z,51.24
2024-03-28T19:04:47.795Z,51.29
2024-03-28T19:07:35.635Z,51.24
2024-03-28T19:10:23.447Z,51.44
2024-03-28T19:13:11.325Z,51.53
2024-03-28T19:15:58.898Z,52.07
2024-03-28T19:18:47.254Z,51.68
2024-03-28T19:21:35.303Z,51.54
2024-03-28T19:24:22.708Z,51.75
2024-03-28T19:27:10.663Z,51.87
2024-03-28T19:30:01.008Z,52.74
2024-03-28T19:32:53.233Z,55.65
2024-03-28T19:35:41.858Z,57.18
2024-03-28T19:38:29.784Z,60.04
2024-03-28T19:41:20.191Z,61.68
2024-03-28T19:44:08.176Z,62.75
2024-03-28T19:46:56.866Z,64.15
2024-03-28T19:49:45.149Z,65.30
2024-03-28T19:52:33.781Z,65.99
2024-03-28T19:55:21.736Z,67.77
2024-03-28T19:58:09.813Z,68.75
2024-03-28T20:00:58.230Z,69.22
2024-03-28T20:03:46.620Z,69.24
2024-03-28T20:06:35.129Z,69.81
2024-03-28T20:09:23.199Z,69.92
2024-03-28T20:12:10.909Z,70.34
2024-03-28T20:15:01.752Z,70.90
2024-03-28T20:17:49.783Z,71.39
2024-03-28T20:20:37.494Z,71.88
2024-03-28T20:23:25.328Z,72.42
2024-03-28T20:26:13.089Z,72.42
2024-03-28T20:29:01.234Z,73.14
2024-03-28T20:31:49.286Z,73.27
2024-03-28T20:34:38.020Z,73.13
2024-03-28T20:37:26.578Z,73.60
2024-03-28T20:40:14.734Z,73.65
2024-03-28T20:43:02.988Z,74.08
2024-03-28T20:45:50.804Z,74.26
2024-03-28T20:48:38.861Z,74.22
2024-03-28T20:51:26.771Z,74.18
2024-03-28T20:54:15.106Z,74.48
2024-03-28T20:57:06.369Z,74.85
2024-03-28T20:59:54.638Z,75.41
2024-03-28T21:02:42.777Z,75.31
2024-03-28T21:05:30.821Z,75.82
2024-03-28T21:08:37.504Z,76.06
2024-03-28T21:11:27.751Z,75.91
2024-03-28T21:14:15.451Z,76.06
2024-03-28T21:17:03.565Z,75.94
2024-03-28T21:19:51.811Z,76.36
2024-03-28T21:22:39.843Z,76.38
2024-03-28T21:25:27.703Z,76.68
2024-03-28T21:28:15.716Z,76.66
2024-03-28T21:31:04.349Z,76.49
2024-03-28T21:33:53.619Z,76.70
2024-03-28T21:36:42.091Z,77.11
2024-03-28T21:39:30.442Z,77.79
2024-03-28T21:42:18.163Z,77.92
2024-03-28T21:45:13.942Z,77.93
2024-03-28T21:48:03.068Z,77.40
2024-03-28T21:50:50.999Z,77.79
2024-03-28T21:53:39.456Z,77.96
2024-03-28T21:56:28.508Z,78.30
2024-03-28T21:59:16.266Z,78.23
2024-03-28T22:02:04.579Z,78.21
2024-03-28T22:04:52.326Z,78.60
2024-03-28T22:07:40.178Z,78.51
2024-03-28T22:10:28.403Z,78.81
2024-03-28T22:13:16.775Z,78.85
2024-03-28T22:16:07.488Z,79.17
2024-03-28T22:18:56.424Z,79.07
2024-03-28T22:21:44.353Z,78.83
2024-03-28T22:24:32.118Z,78.37
2024-03-28T22:27:19.960Z,78.37
2024-03-28T22:30:08.601Z,78.69
2024-03-28T22:32:56.181Z,78.82
2024-03-28T22:35:45.569Z,79.21
2024-03-28T22:38:33.629Z,79.81
2024-03-28T22:41:21.688Z,79.72
2024-03-28T22:44:09.407Z,79.40
2024-03-28T22:46:56.876Z,79.02
2024-03-28T22:49:45.626Z,79.02
2024-03-28T22:52:33.561Z,78.97
2024-03-28T22:55:21.793Z,78.81
2024-03-28T22:58:09.513Z,78.17
2024-03-28T23:00:58.093Z,78.44
2024-03-28T23:03:46.028Z,78.14
2024-03-28T23:06:33.764Z,78.38
2024-03-28T23:09:21.398Z,78.12
2024-03-28T23:12:09.185Z,78.14
2024-03-28T23:14:56.656Z,78.33
2024-03-28T23:17:44.676Z,79.03
2024-03-28T23:20:32.627Z,79.29
2024-03-28T23:23:20.663Z,79.61
2024-03-28T23:26:08.629Z,79.30
2024-03-28T23:28:56.655Z,79.04
2024-03-28T23:31:44.615Z,78.76
2024-03-28T23:34:32.726Z,78.96
2024-03-28T23:37:20.494Z,78.71
2024-03-28T23:40:09.213Z,78.11
2024-03-28T23:42:56.739Z,78.49
2024-03-28T23:45:51.953Z,78.47
2024-03-28T23:48:39.291Z,78.62
2024-03-28T23:51:26.735Z,78.36
2024-03-28T23:54:14.548Z,77.96
2024-03-28T23:57:02.215Z,78.09
2024-03-28T23:59:51.144Z,78.07
